MAUNA LOA HI US current weather conditions

sailwx.info

Wind from 133 at 3 knots gusting 8

Air temperature 22.8° C
Dewpoint 14.9° C

Last reported at 2014-Sep-19 20:34 UTC.
Time now 2014-Sep-19 21:53 UTC

Location: N 19°28' W 155°22'.
View on Google Maps.

See reports from other nearby stations

  
Tides and Currents Weather Stations Pressure Air Temp Water Temp Dewpoint Dewpoint Depression Visibility Wind Speed Wind Dir Waves Ship Positions
date/time (UTC)wind fromknots sea level pressurealtimeterstation pressurevisibilityair tempwater tempwave heightnotes
2014-Sep-19 20:34 133 3 gusting 8 22.8
2014-Sep-19 19:34 159 4 gusting 8 21.1
2014-Sep-19 18:34 138 2 gusting 6 22.2
2014-Sep-19 17:34 317 0 gusting 5 17.8
2014-Sep-19 16:34 311 5 gusting 7 8.9
2014-Sep-19 15:34 306 4 gusting 7 8.9
2014-Sep-19 14:34 297 5 gusting 6 8.9
2014-Sep-19 13:34 314 4 gusting 5 9.4
2014-Sep-19 12:34 290 3 gusting 5 11.1
2014-Sep-19 11:34 285 2 gusting 4 11.1
2014-Sep-19 10:34 272 2 gusting 3 11.7
2014-Sep-19 09:34 319 2 gusting 5 11.1
2014-Sep-19 08:34 289 2 gusting 5 10.6
2014-Sep-19 07:34 285 2 gusting 5 11.1
2014-Sep-19 06:34 335 2 gusting 3 12.8
2014-Sep-19 05:34 213 0 gusting 6 15.0
2014-Sep-19 04:34 177 1 gusting 7 16.1
2014-Sep-19 03:34 138 3 gusting 9 18.3
2014-Sep-19 02:34 158 4 gusting 8 19.4
2014-Sep-19 01:34 170 4 gusting 10 20.0
2014-Sep-19 00:34 147 5 gusting 11 21.7
2014-Sep-18 23:34 124 5 gusting 11 22.8
2014-Sep-18 22:34 137 6 gusting 12 22.8
2014-Sep-18 21:34 149 5 gusting 9 20.0
2014-Sep-18 20:34 175 5 gusting 9 20.6
2014-Sep-18 18:34 165 1 gusting 3 22.8
2014-Sep-18 17:34 17.8
2014-Sep-18 16:34 300 4 gusting 7 8.3
2014-Sep-18 15:34 306 5 gusting 6 7.8
2014-Sep-18 14:34 301 3 gusting 6 7.8
2014-Sep-18 13:34 300 5 gusting 7 8.3
2014-Sep-18 12:34 298 3 gusting 6 9.4
2014-Sep-18 11:34 300 5 gusting 6 9.4
2014-Sep-18 10:34 299 2 gusting 6 10.6
2014-Sep-18 09:34 320 2 gusting 3 13.3
2014-Sep-18 08:34 326 1 gusting 3 12.8
2014-Sep-18 07:34 13.3
2014-Sep-18 06:34 309 3 gusting 6 12.2
2014-Sep-18 05:34 013 3 gusting 7 15.0
2014-Sep-18 04:34 006 4 gusting 7 14.4
2014-Sep-18 02:34 037 1 gusting 5 15.6
2014-Sep-18 01:34 091 0 gusting 6 16.7
2014-Sep-18 00:34 107 1 gusting 7 17.2
2014-Sep-17 23:34 155 3 gusting 6 18.3
2014-Sep-17 22:34 159 1 gusting 6 18.9
2014-Sep-17 21:34 114 1 gusting 8 19.4